Time;durP1;ratioP1;P1;durP2;ratioP2;P2;SDS_P1;SDS_P2;PMS_P1;PMS_P2;Temp;Humidity;BMP_temperature;BMP_pressure;BME280_temperature;BME280_humidity;BME280_pressure;Samples;Min_cycle;Max_cycle;Signal;HPM_P1;HPM_P2
2022/12/17 13:08:19;;;;;;;85.57;40.50;;;-0.10;99.90;;;;;;4921013;29;20060;-76
2022/12/17 13:10:46;;;;;;;87.30;41.35;;;-0.10;99.90;;;;;;4902058;29;20062;-74
2022/12/17 13:13:18;;;;;;;83.68;40.88;;;-0.10;99.90;;;;;;4918715;29;20384;-74
2022/12/17 13:15:50;;;;;;;79.30;38.55;;;-0.10;99.90;;;;;;4925810;29;20072;-74
2022/12/17 13:18:35;;;;;;;80.03;38.42;;;-0.10;99.90;;;;;;4924773;29;20493;-75
2022/12/17 13:21:16;;;;;;;73.38;36.90;;;-0.20;99.90;;;;;;4942470;28;20427;-76
2022/12/17 13:23:42;;;;;;;80.93;38.80;;;-0.10;99.90;;;;;;4929186;29;20043;-76
2022/12/17 13:26:30;;;;;;;81.85;39.70;;;-0.20;99.90;;;;;;4924580;29;20493;-75
2022/12/17 13:28:58;;;;;;;82.70;38.88;;;0.20;99.90;;;;;;4926707;29;20055;-75
2022/12/17 13:31:32;;;;;;;79.63;39.45;;;-0.20;99.90;;;;;;4928442;29;20040;-75
2022/12/17 13:34:16;;;;;;;81.45;39.00;;;-0.20;99.90;;;;;;4917780;29;20051;-74
2022/12/17 13:37:03;;;;;;;77.97;39.17;;;-0.20;99.90;;;;;;4937624;29;20098;-74
2022/12/17 13:39:36;;;;;;;79.55;37.03;;;-0.20;99.90;;;;;;4906806;29;20052;-74
2022/12/17 13:42:03;;;;;;;85.82;39.67;;;-0.20;99.90;;;;;;4934043;29;20510;-75
2022/12/17 13:44:40;;;;;;;80.20;38.95;;;-0.30;99.90;;;;;;4930543;29;20087;-74
2022/12/17 13:47:22;;;;;;;81.35;39.30;;;-0.30;99.90;;;;;;4929604;29;20057;-75
2022/12/17 13:49:56;;;;;;;75.68;35.25;;;-0.30;99.90;;;;;;4931670;29;20131;-75
2022/12/17 13:52:24;;;;;;;80.78;38.33;;;-0.30;99.90;;;;;;4940366;28;20047;-75
2022/12/17 13:54:50;;;;;;;86.15;38.10;;;-0.30;99.90;;;;;;4948194;28;20047;-75
2022/12/17 13:57:18;;;;;;;77.90;37.50;;;-0.30;99.90;;;;;;4934227;29;20054;-74
2022/12/17 13:59:52;;;;;;;80.18;36.72;;;0.20;99.90;;;;;;4934008;29;20052;-74
2022/12/17 14:02:28;;;;;;;73.53;34.67;;;-0.30;99.90;;;;;;4933038;29;20085;-75
2022/12/17 14:05:06;;;;;;;81.47;38.22;;;-0.30;99.90;;;;;;4931503;29;20194;-76
2022/12/17 14:07:36;;;;;;;82.80;38.28;;;-0.40;99.90;;;;;;4948142;28;20400;-76
2022/12/17 14:10:04;;;;;;;81.47;38.42;;;-0.40;99.90;;;;;;4939009;28;20052;-76
2022/12/17 14:12:33;;;;;;;87.93;37.88;;;-0.40;99.90;;;;;;4943569;28;20136;-76
2022/12/17 14:15:01;;;;;;;79.85;36.97;;;-0.50;99.90;;;;;;4899266;29;20058;-76
2022/12/17 14:17:47;;;;;;;82.47;35.60;;;0.30;99.90;;;;;;4927819;29;20377;-76
2022/12/17 14:20:22;;;;;;;81.22;35.92;;;-0.50;99.90;;;;;;4917628;29;20040;-75
2022/12/17 14:22:57;;;;;;;83.18;36.33;;;-0.40;99.90;;;;;;4933455;29;20103;-75
2022/12/17 14:25:28;;;;;;;77.55;34.53;;;-0.20;99.90;;;;;;4931132;29;20131;-76
2022/12/17 14:28:16;;;;;;;78.72;32.95;;;-0.40;99.90;;;;;;4929436;29;20052;-75
2022/12/17 14:30:42;;;;;;;81.65;33.50;;;-0.50;99.90;;;;;;4925327;29;20047;-76
2022/12/17 14:33:47;;;;;;;80.32;33.92;;;-0.20;99.90;;;;;;4932918;29;20058;-76
2022/12/17 14:36:15;;;;;;;87.65;35.13;;;-0.70;99.90;;;;;;4879467;29;20056;-76
2022/12/17 14:38:55;;;;;;;85.40;34.15;;;-0.70;99.90;;;;;;4878451;29;20149;-76
2022/12/17 14:44:06;;;;;;;89.32;34.30;;;-0.80;99.90;;;;;;4937636;29;20392;-76
2022/12/17 14:46:33;;;;;;;88.53;36.55;;;-0.80;99.90;;;;;;4937097;29;21079;-76
2022/12/17 14:49:14;;;;;;;94.45;35.50;;;-0.80;99.90;;;;;;4921587;29;20055;-76
2022/12/17 14:51:41;;;;;;;95.82;34.72;;;-0.20;99.90;;;;;;4935172;29;20052;-76
2022/12/17 14:54:24;;;;;;;90.28;31.33;;;-0.90;99.90;;;;;;4933401;29;20055;-76
2022/12/17 14:56:51;;;;;;;80.38;30.20;;;-0.90;99.90;;;;;;4947305;28;20055;-76
2022/12/17 14:59:23;;;;;;;80.35;30.33;;;-0.80;99.90;;;;;;4934107;29;20048;-76
2022/12/17 15:01:50;;;;;;;80.47;31.80;;;-0.90;99.90;;;;;;4948184;28;20106;-76
2022/12/17 15:04:16;;;;;;;85.47;32.13;;;-0.90;99.90;;;;;;4917408;29;20059;-76
2022/12/17 15:06:42;;;;;;;75.50;29.00;;;-1.00;99.90;;;;;;4945980;28;20058;-76
2022/12/17 15:09:12;;;;;;;81.38;30.25;;;-1.10;99.90;;;;;;4935952;29;20040;-76
2022/12/17 15:11:38;;;;;;;81.15;30.27;;;-1.10;99.90;;;;;;4921421;29;20040;-76
2022/12/17 15:14:03;;;;;;;75.40;25.95;;;-1.00;99.90;;;;;;4936983;29;20051;-76
2022/12/17 15:16:29;;;;;;;92.53;34.75;;;-1.00;99.90;;;;;;4921399;29;20060;-77
2022/12/17 15:18:55;;;;;;;96.97;33.80;;;-0.40;99.90;;;;;;4938039;29;20035;-76
2022/12/17 15:21:21;;;;;;;96.72;33.90;;;-1.20;99.90;;;;;;4886361;29;20400;-76
2022/12/17 15:23:47;;;;;;;94.40;33.65;;;-0.70;99.90;;;;;;4920591;29;20134;-76
2022/12/17 15:26:14;;;;;;;107.13;33.95;;;-1.30;99.90;;;;;;4920807;29;20096;-76
2022/12/17 15:28:40;;;;;;;95.03;33.50;;;-1.30;99.90;;;;;;4920880;29;20378;-76
2022/12/17 15:31:08;;;;;;;109.20;36.88;;;-1.30;99.90;;;;;;4921255;29;20119;-76
2022/12/17 15:33:34;;;;;;;101.60;35.72;;;-1.20;99.90;;;;;;4920541;29;20460;-76
2022/12/17 15:35:59;;;;;;;100.35;33.88;;;-1.30;99.90;;;;;;4905039;29;20131;-76
2022/12/17 15:38:25;;;;;;;96.05;32.75;;;-1.30;99.90;;;;;;4919626;29;20043;-76
2022/12/17 15:40:51;;;;;;;91.00;31.38;;;-1.20;99.90;;;;;;4921184;29;20051;-76
2022/12/17 15:43:17;;;;;;;108.63;37.47;;;-1.20;99.90;;;;;;4920540;29;20044;-77
2022/12/17 15:45:48;;;;;;;115.47;38.22;;;-1.20;99.90;;;;;;4914103;29;20184;-77
2022/12/17 15:48:20;;;;;;;122.80;39.42;;;-1.30;99.90;;;;;;4919665;29;20063;-78
2022/12/17 15:50:46;;;;;;;93.28;32.28;;;-1.30;99.90;;;;;;4915157;29;20052;-76
2022/12/17 15:53:12;;;;;;;107.22;37.65;;;-1.30;99.90;;;;;;4929773;29;20403;-77
2022/12/17 15:55:39;;;;;;;119.05;37.83;;;-1.30;99.90;;;;;;4913497;29;20047;-78
2022/12/17 15:58:06;;;;;;;111.15;37.60;;;-1.30;99.90;;;;;;4931614;29;20403;-77
2022/12/17 16:00:32;;;;;;;107.95;36.25;;;-1.40;99.90;;;;;;4915979;29;20177;-78
2022/12/17 16:02:58;;;;;;;101.93;36.70;;;-1.30;99.90;;;;;;4930159;29;20539;-77
2022/12/17 16:05:23;;;;;;;115.22;38.47;;;-1.40;99.90;;;;;;4895507;29;20161;-76
2022/12/17 16:07:50;;;;;;;116.93;39.83;;;-1.40;99.90;;;;;;4926248;29;20134;-78
2022/12/17 16:10:16;;;;;;;112.75;38.25;;;-1.50;99.90;;;;;;4924617;29;20396;-77
2022/12/17 16:12:42;;;;;;;102.60;37.63;;;-1.50;99.90;;;;;;4927948;29;20048;-78
2022/12/17 16:15:09;;;;;;;106.13;36.90;;;-1.50;99.90;;;;;;4933249;29;20515;-77
2022/12/17 16:17:35;;;;;;;111.35;37.70;;;-1.50;99.90;;;;;;4930984;29;20050;-77
2022/12/17 16:20:01;;;;;;;99.30;36.20;;;-1.50;99.90;;;;;;4927769;29;20047;-76
2022/12/17 16:22:27;;;;;;;108.38;38.92;;;-1.50;99.90;;;;;;4915318;29;20068;-76
2022/12/17 16:24:53;;;;;;;109.53;39.75;;;-1.50;99.90;;;;;;4926044;29;20081;-77
2022/12/17 16:27:19;;;;;;;92.70;36.17;;;-1.50;99.90;;;;;;4914871;29;20062;-77
2022/12/17 16:29:48;;;;;;;96.03;38.03;;;-0.40;99.90;;;;;;4924758;29;20134;-77
2022/12/17 16:32:15;;;;;;;92.93;36.15;;;-1.80;99.90;;;;;;4913060;29;20060;-77
2022/12/17 16:34:40;;;;;;;98.57;37.53;;;-1.50;99.90;;;;;;4924363;29;20122;-77
2022/12/17 16:37:06;;;;;;;99.22;37.53;;;-1.60;99.90;;;;;;4915999;29;20462;-77
2022/12/17 16:39:32;;;;;;;92.45;36.78;;;-1.60;99.90;;;;;;4922551;29;20040;-78
2022/12/17 16:41:58;;;;;;;106.35;39.83;;;-0.80;99.90;;;;;;4920723;29;20046;-77
2022/12/17 16:44:23;;;;;;;107.68;41.25;;;-1.60;99.90;;;;;;4915238;29;20090;-77
2022/12/17 16:46:51;;;;;;;101.63;40.72;;;-1.20;99.90;;;;;;4920632;29;20399;-78
2022/12/17 16:49:21;;;;;;;108.90;41.15;;;-1.70;99.90;;;;;;4921550;29;20106;-77
2022/12/17 16:51:51;;;;;;;104.63;40.92;;;-1.70;99.90;;;;;;4916155;29;20118;-76
2022/12/17 16:54:23;;;;;;;93.28;39.88;;;-1.70;99.90;;;;;;4925596;29;20075;-77
2022/12/17 16:56:49;;;;;;;69.47;28.23;;;-1.70;99.90;;;;;;4917806;29;20079;-77
2022/12/17 16:59:15;;;;;;;97.43;41.33;;;-1.70;99.90;;;;;;4930953;29;20118;-77
2022/12/17 17:01:43;;;;;;;96.72;41.15;;;-1.70;99.90;;;;;;4902507;29;20087;-77
2022/12/17 17:04:09;;;;;;;99.97;41.50;;;-1.70;99.90;;;;;;4930657;29;20050;-77
2022/12/17 17:06:47;;;;;;;93.70;39.78;;;-1.70;99.90;;;;;;4921038;29;20048;-77
2022/12/17 17:09:13;;;;;;;105.65;41.95;;;-1.70;99.90;;;;;;4918371;29;20115;-77
2022/12/17 17:11:39;;;;;;;106.78;42.50;;;-1.70;99.90;;;;;;4926965;29;20062;-77
2022/12/17 17:14:06;;;;;;;112.82;45.40;;;-1.50;99.90;;;;;;4920559;28;20047;-76
2022/12/17 17:16:33;;;;;;;106.05;44.10;;;-1.70;99.90;;;;;;4931618;29;20046;-77
2022/12/17 17:18:59;;;;;;;104.22;42.95;;;-1.20;99.90;;;;;;4915418;29;20130;-77
2022/12/17 17:21:30;;;;;;;101.00;41.55;;;-1.40;99.90;;;;;;4919045;29;20118;-77
2022/12/17 17:24:06;;;;;;;107.97;44.28;;;-1.70;99.90;;;;;;4905676;29;20512;-77
2022/12/17 17:26:33;;;;;;;114.72;46.30;;;-1.80;99.90;;;;;;4909315;29;20044;-77
2022/12/17 17:28:59;;;;;;;116.22;47.17;;;-1.60;99.90;;;;;;4911310;29;20099;-77
2022/12/17 17:31:25;;;;;;;104.30;41.78;;;-1.80;99.90;;;;;;4909102;29;20051;-79
2022/12/17 17:33:52;;;;;;;107.88;43.25;;;-1.80;99.90;;;;;;4924085;29;20065;-78
2022/12/17 17:36:21;;;;;;;112.57;45.80;;;-1.80;99.90;;;;;;4925632;29;20054;-80
2022/12/17 17:38:48;;;;;;;111.43;45.38;;;-1.40;99.90;;;;;;4901045;29;20055;-78
2022/12/17 17:41:17;;;;;;;121.72;49.35;;;-1.80;99.90;;;;;;4916795;29;20055;-77
2022/12/17 17:43:43;;;;;;;114.68;48.17;;;-1.20;99.90;;;;;;4928806;29;20047;-77
2022/12/17 17:46:17;;;;;;;120.63;51.30;;;-1.80;99.90;;;;;;4907089;29;20055;-77
2022/12/17 17:48:45;;;;;;;105.72;44.78;;;-1.80;99.90;;;;;;4925025;29;20122;-78
2022/12/17 17:51:13;;;;;;;105.30;43.83;;;-1.80;99.90;;;;;;4922180;29;20060;-78
2022/12/17 17:53:40;;;;;;;105.88;43.83;;;-1.80;99.90;;;;;;4930410;29;20428;-78
2022/12/17 17:56:32;;;;;;;108.78;47.17;;;-1.70;99.90;;;;;;4922195;29;20055;-78
2022/12/17 17:59:05;;;;;;;109.55;47.55;;;-1.80;99.90;;;;;;4897333;29;20505;-78
2022/12/17 18:01:34;;;;;;;114.05;47.75;;;-1.90;99.90;;;;;;4922079;29;20058;-79
2022/12/17 18:04:01;;;;;;;108.05;45.85;;;-1.90;99.90;;;;;;4923457;29;20055;-78
2022/12/17 18:06:27;;;;;;;123.28;49.20;;;-1.90;99.90;;;;;;4917070;29;20098;-80
2022/12/17 18:08:55;;;;;;;121.28;50.83;;;-1.90;99.90;;;;;;4918342;29;20056;-78
2022/12/17 18:11:22;;;;;;;127.13;51.45;;;-1.90;99.90;;;;;;4886855;29;20087;-77
2022/12/17 18:13:54;;;;;;;134.40;52.70;;;-2.00;99.90;;;;;;4925741;29;20062;-77
2022/12/17 18:16:21;;;;;;;131.02;51.33;;;-2.00;99.90;;;;;;4948189;29;20051;-77
2022/12/17 18:18:47;;;;;;;133.55;53.25;;;-1.90;99.90;;;;;;4952057;29;20554;-79
2022/12/17 18:21:15;;;;;;;126.97;52.40;;;-1.80;99.90;;;;;;4950984;29;20102;-78
2022/12/17 18:23:41;;;;;;;114.03;45.80;;;-1.90;99.90;;;;;;4950900;29;20087;-78
2022/12/17 18:26:19;;;;;;;138.68;54.65;;;-1.00;99.90;;;;;;4932429;29;20360;-80
2022/12/17 18:28:46;;;;;;;140.52;55.15;;;-0.70;99.90;;;;;;4931479;29;20086;-77
2022/12/17 18:31:16;;;;;;;122.85;49.75;;;-1.90;99.90;;;;;;4946691;29;20450;-78
2022/12/17 18:33:45;;;;;;;145.40;57.42;;;-1.90;99.90;;;;;;4949965;29;20126;-76
2022/12/17 18:36:14;;;;;;;132.10;54.28;;;-1.90;99.90;;;;;;4942730;29;20107;-77
2022/12/17 18:38:40;;;;;;;138.68;56.70;;;-1.80;99.90;;;;;;4942769;29;20043;-78
2022/12/17 18:43:21;;;;;;;141.48;55.63;;;-1.90;99.90;;;;;;4946114;29;20051;-78
2022/12/17 18:43:57;;;;;;;134.90;55.03;;;-1.90;99.90;;;;;;4953113;29;20059;-78
2022/12/17 18:46:23;;;;;;;131.80;53.67;;;-1.90;99.90;;;;;;4948818;29;20067;-77
2022/12/17 18:48:50;;;;;;;139.27;57.25;;;-1.90;99.90;;;;;;4949692;29;20055;-77
2022/12/17 18:51:16;;;;;;;141.23;56.70;;;-1.10;99.90;;;;;;4950291;29;20047;-78
2022/12/17 18:53:42;;;;;;;124.25;50.45;;;-1.90;99.90;;;;;;4933487;29;20047;-78
2022/12/17 18:56:09;;;;;;;128.60;55.85;;;-1.50;99.90;;;;;;4952789;29;20098;-78
2022/12/17 18:58:35;;;;;;;141.00;57.47;;;-1.90;99.90;;;;;;4950631;29;20081;-78
2022/12/17 19:01:00;;;;;;;140.15;56.00;;;-2.00;99.90;;;;;;4951333;29;20087;-77
2022/12/17 19:03:26;;;;;;;143.27;59.05;;;-2.00;99.90;;;;;;4916839;29;20058;-79
2022/12/17 19:05:52;;;;;;;122.55;52.50;;;-2.00;99.90;;;;;;4959374;28;20052;-78
2022/12/17 19:08:17;;;;;;;142.95;56.47;;;-1.90;99.90;;;;;;4925996;29;20130;-77
2022/12/17 19:10:43;;;;;;;145.23;56.55;;;-2.00;99.90;;;;;;4934792;29;20062;-78
2022/12/17 19:13:09;;;;;;;143.55;57.65;;;-2.10;99.90;;;;;;4918942;29;20051;-77
2022/12/17 19:15:34;;;;;;;135.73;53.78;;;-2.10;99.90;;;;;;4935176;29;20055;-77
2022/12/17 19:18:00;;;;;;;127.72;52.58;;;-2.00;99.90;;;;;;4948064;29;20526;-78
2022/12/17 19:20:26;;;;;;;144.65;56.05;;;-2.10;99.90;;;;;;4951165;29;20074;-77
2022/12/17 19:22:52;;;;;;;138.73;56.25;;;-2.00;99.90;;;;;;4948177;29;20065;-78
2022/12/17 19:25:17;;;;;;;135.60;56.97;;;-2.10;99.90;;;;;;4946017;28;20051;-78
2022/12/17 19:27:43;;;;;;;140.20;56.38;;;-2.10;99.90;;;;;;4935687;29;20623;-77
2022/12/17 19:30:10;;;;;;;148.30;55.85;;;-2.10;99.90;;;;;;4937865;29;20051;-78
2022/12/17 19:32:35;;;;;;;130.98;54.28;;;-2.00;99.90;;;;;;4949051;29;20507;-77
2022/12/17 19:35:01;;;;;;;112.38;46.67;;;-1.90;99.90;;;;;;4936195;29;20051;-78
2022/12/17 19:37:27;;;;;;;134.65;52.40;;;-1.50;99.90;;;;;;4933650;29;20202;-77
2022/12/17 19:39:52;;;;;;;125.47;49.97;;;-1.90;99.90;;;;;;4948295;29;20055;-78
2022/12/17 19:42:24;;;;;;;114.68;46.35;;;-2.00;99.90;;;;;;4952186;29;20039;-78
2022/12/17 19:44:54;;;;;;;138.65;54.15;;;-1.90;99.90;;;;;;4951272;29;20062;-78
2022/12/17 19:47:21;;;;;;;135.98;52.33;;;-2.00;99.90;;;;;;4949370;29;20179;-78
2022/12/17 19:49:47;;;;;;;126.38;49.67;;;-2.10;99.90;;;;;;4923874;29;20131;-78
2022/12/17 19:52:12;;;;;;;128.55;51.00;;;-2.00;99.90;;;;;;4918633;29;20166;-78
2022/12/17 19:54:38;;;;;;;129.57;52.72;;;-2.10;99.90;;;;;;4937441;29;20062;-77
2022/12/17 19:57:04;;;;;;;128.32;49.17;;;-2.10;99.90;;;;;;4932972;29;20103;-78
2022/12/17 19:59:29;;;;;;;139.80;53.40;;;-2.20;99.90;;;;;;4937303;29;20051;-78
2022/12/17 20:01:56;;;;;;;142.48;52.33;;;-2.20;99.90;;;;;;4937294;29;20047;-78
2022/12/17 20:04:22;;;;;;;141.75;54.13;;;-1.80;99.90;;;;;;4929076;29;20044;-77
2022/12/17 20:06:48;;;;;;;135.50;51.33;;;-2.20;99.90;;;;;;4945289;29;20479;-78
2022/12/17 20:09:16;;;;;;;131.65;50.10;;;-2.20;99.90;;;;;;4945324;29;20175;-78
2022/12/17 20:11:44;;;;;;;131.70;51.10;;;-2.20;99.90;;;;;;4918353;29;20063;-77
2022/12/17 20:14:16;;;;;;;131.25;50.17;;;-2.30;99.90;;;;;;4917888;29;20051;-77
2022/12/17 20:16:44;;;;;;;145.18;53.92;;;-2.30;99.90;;;;;;4915333;29;20063;-77
2022/12/17 20:19:12;;;;;;;143.98;53.35;;;-2.30;99.90;;;;;;4933724;29;20044;-77
2022/12/17 20:21:39;;;;;;;153.88;55.95;;;-2.30;99.90;;;;;;4947742;29;20072;-78
2022/12/17 20:24:05;;;;;;;138.77;52.53;;;-2.30;99.90;;;;;;4950367;29;20190;-77
2022/12/17 20:26:30;;;;;;;138.20;52.75;;;-2.30;99.90;;;;;;4931036;29;20057;-78
2022/12/17 20:28:58;;;;;;;145.98;52.17;;;-2.30;99.90;;;;;;4942592;29;20126;-77
2022/12/17 20:31:24;;;;;;;142.32;50.40;;;-2.30;99.90;;;;;;4929683;29;20061;-81
2022/12/17 20:33:50;;;;;;;116.50;44.33;;;-2.30;99.90;;;;;;4950898;29;20055;-78
2022/12/17 20:36:18;;;;;;;140.50;53.40;;;-2.30;99.90;;;;;;4950179;28;20098;-77
2022/12/17 20:38:44;;;;;;;139.07;52.85;;;-2.30;99.90;;;;;;4948930;29;20436;-78
2022/12/17 20:41:12;;;;;;;135.63;51.72;;;-1.50;99.90;;;;;;4951063;29;20476;-77
2022/12/17 20:43:38;;;;;;;136.38;52.08;;;-2.40;99.90;;;;;;4917535;29;20059;-78
2022/12/17 20:46:04;;;;;;;146.07;54.40;;;-2.40;99.90;;;;;;4942517;29;20043;-77
2022/12/17 20:48:31;;;;;;;143.10;54.30;;;-2.40;99.90;;;;;;4945127;29;20055;-77
2022/12/17 20:50:56;;;;;;;152.32;55.17;;;-2.40;99.90;;;;;;4934958;29;20142;-78
2022/12/17 20:53:22;;;;;;;141.38;52.97;;;-2.30;99.90;;;;;;4948149;29;20803;-78
2022/12/17 20:56:08;;;;;;;156.00;56.72;;;-2.30;99.90;;;;;;4928659;29;20083;-78
2022/12/17 20:58:35;;;;;;;141.70;53.85;;;-2.30;99.90;;;;;;4944215;29;20118;-77
2022/12/17 21:01:07;;;;;;;150.70;55.65;;;-2.30;99.90;;;;;;4950648;29;20051;-78
2022/12/17 21:03:33;;;;;;;152.70;56.05;;;-2.30;99.90;;;;;;4941911;29;20072;-77
2022/12/17 21:06:11;;;;;;;155.05;55.70;;;-2.30;99.90;;;;;;4944828;29;20054;-78
2022/12/17 21:08:38;;;;;;;147.57;53.35;;;-2.30;99.90;;;;;;4905865;29;20721;-77
2022/12/17 21:11:05;;;;;;;139.60;52.58;;;-2.30;99.90;;;;;;4945712;29;20050;-77
2022/12/17 21:13:30;;;;;;;145.20;52.38;;;-2.30;99.90;;;;;;4919378;29;20051;-77
2022/12/17 21:16:05;;;;;;;140.52;52.40;;;-2.30;99.90;;;;;;4916750;29;20131;-78
2022/12/17 21:18:32;;;;;;;144.68;51.83;;;-2.30;99.90;;;;;;4916345;29;20508;-79
2022/12/17 21:21:03;;;;;;;128.57;48.70;;;-2.30;99.90;;;;;;4919384;29;20052;-78
2022/12/17 21:23:30;;;;;;;101.78;41.25;;;-2.10;99.90;;;;;;4933723;29;20172;-78
2022/12/17 21:26:00;;;;;;;150.63;52.47;;;-1.80;99.90;;;;;;4919474;29;20051;-78
2022/12/17 21:28:26;;;;;;;148.77;52.58;;;-2.30;99.90;;;;;;4932573;29;20040;-77
2022/12/17 21:30:52;;;;;;;140.27;52.08;;;-2.30;99.90;;;;;;4920881;29;20067;-78
2022/12/17 21:33:18;;;;;;;153.27;54.83;;;-2.40;99.90;;;;;;4915362;29;20052;-78
2022/12/17 21:35:43;;;;;;;148.88;53.55;;;-2.40;99.90;;;;;;4913225;29;20054;-79
2022/12/17 21:38:09;;;;;;;125.25;44.42;;;-2.40;99.90;;;;;;4932831;29;20047;-79
2022/12/17 21:40:35;;;;;;;132.00;49.95;;;-2.40;99.90;;;;;;4934972;29;20046;-79
2022/12/17 21:43:01;;;;;;;132.32;48.70;;;-1.40;99.90;;;;;;4933801;29;20457;-79
2022/12/17 21:45:32;;;;;;;137.88;49.90;;;-2.40;99.90;;;;;;4934638;29;20135;-78
2022/12/17 21:47:57;;;;;;;135.63;50.40;;;-2.50;99.90;;;;;;4933369;29;20126;-79
2022/12/17 21:50:23;;;;;;;137.60;49.90;;;-2.50;99.90;;;;;;4934249;29;20126;-78
2022/12/17 21:52:49;;;;;;;140.52;50.60;;;-2.50;99.90;;;;;;4933674;29;20200;-78
2022/12/17 21:55:15;;;;;;;154.65;53.10;;;-2.60;99.90;;;;;;4920220;29;20050;-78
2022/12/17 21:57:41;;;;;;;147.18;52.17;;;-2.10;99.90;;;;;;4934176;29;20055;-78
2022/12/17 22:00:07;;;;;;;157.13;53.22;;;-2.60;99.90;;;;;;4918231;29;20122;-78
2022/12/17 22:02:33;;;;;;;153.75;53.92;;;-2.70;99.90;;;;;;4934139;29;20487;-77
2022/12/17 22:04:59;;;;;;;159.25;53.00;;;-2.70;99.90;;;;;;4906255;29;20139;-77
2022/12/17 22:07:24;;;;;;;148.82;48.60;;;-2.70;99.90;;;;;;4933144;29;20058;-77
2022/12/17 22:09:50;;;;;;;139.75;50.55;;;-2.60;99.90;;;;;;4934212;29;20044;-78
2022/12/17 22:15:00;;;;;;;135.15;46.70;;;-2.70;99.90;;;;;;4922165;29;20066;-78
2022/12/17 22:17:25;;;;;;;141.80;49.28;;;-2.70;99.90;;;;;;4932468;29;20044;-78
2022/12/17 22:19:51;;;;;;;137.05;49.42;;;-2.70;99.90;;;;;;4934074;29;20048;-78
2022/12/17 22:22:17;;;;;;;156.27;53.47;;;-2.70;99.90;;;;;;4933357;29;20086;-78
2022/12/17 22:24:42;;;;;;;139.40;48.58;;;-2.70;99.90;;;;;;4933821;29;20464;-79
2022/12/17 22:27:08;;;;;;;136.77;46.08;;;-2.70;99.90;;;;;;4934258;29;20052;-78
2022/12/17 22:35:02;;;;;;;146.57;49.03;;;-2.80;99.90;;;;;;4933937;29;20048;-78
2022/12/17 22:37:27;;;;;;;131.50;46.70;;;-2.70;99.90;;;;;;4933569;29;20047;-78
2022/12/17 22:39:53;;;;;;;132.23;47.70;;;-2.80;99.90;;;;;;4918145;29;20047;-78
2022/12/17 22:45:05;;;;;;;134.13;47.55;;;-2.80;99.90;;;;;;4920686;29;20054;-78
2022/12/17 22:47:31;;;;;;;135.77;46.70;;;-2.80;99.90;;;;;;4932068;29;20099;-78
2022/12/17 22:49:56;;;;;;;125.07;46.05;;;-2.80;99.90;;;;;;4933694;29;20080;-78
2022/12/17 22:52:22;;;;;;;131.40;45.80;;;-2.80;99.90;;;;;;4917444;29;20443;-78
2022/12/17 22:54:48;;;;;;;129.88;44.88;;;-2.80;99.90;;;;;;4918423;29;20044;-78
2022/12/17 22:57:13;;;;;;;133.95;46.15;;;-2.90;99.90;;;;;;4917756;29;20476;-78
2022/12/17 22:59:39;;;;;;;125.68;44.58;;;-2.90;99.90;;;;;;4934380;29;20087;-78
2022/12/17 23:02:06;;;;;;;149.65;47.72;;;-2.90;99.90;;;;;;4936762;29;21120;-78
2022/12/17 23:04:32;;;;;;;126.50;42.60;;;-2.90;99.90;;;;;;4922162;29;20048;-78
2022/12/17 23:06:58;;;;;;;133.80;45.63;;;-2.90;99.90;;;;;;4936284;29;20123;-80
2022/12/17 23:09:24;;;;;;;152.60;49.58;;;-1.80;99.90;;;;;;4937199;29;20044;-78
2022/12/17 23:11:49;;;;;;;149.35;46.90;;;-2.90;99.90;;;;;;4938662;29;20054;-78
2022/12/17 23:14:16;;;;;;;137.23;47.40;;;-2.90;99.90;;;;;;4940710;29;20103;-78
2022/12/17 23:16:42;;;;;;;120.32;44.92;;;-2.90;99.90;;;;;;4937134;29;20087;-78
2022/12/17 23:19:08;;;;;;;118.25;42.10;;;-2.90;99.90;;;;;;4921203;29;20484;-79
2022/12/17 23:21:34;;;;;;;132.50;44.40;;;-2.90;99.90;;;;;;4937152;29;20051;-79
2022/12/17 23:24:00;;;;;;;133.00;42.42;;;-2.90;99.90;;;;;;4920630;29;20059;-79
2022/12/17 23:26:29;;;;;;;122.72;43.47;;;-3.00;99.90;;;;;;4920853;29;20391;-79
2022/12/17 23:28:58;;;;;;;132.82;42.05;;;-3.00;99.90;;;;;;4937075;29;20079;-79
2022/12/17 23:31:31;;;;;;;114.78;41.38;;;-3.00;99.90;;;;;;4936998;29;20488;-79
2022/12/17 23:33:57;;;;;;;115.38;41.58;;;-3.00;99.90;;;;;;4936969;29;20055;-78
2022/12/17 23:36:24;;;;;;;118.03;40.85;;;-2.70;99.90;;;;;;4921047;29;20048;-79
2022/12/17 23:38:50;;;;;;;115.85;41.25;;;-3.10;99.90;;;;;;4919943;29;20083;-79
2022/12/17 23:41:23;;;;;;;130.02;42.70;;;-2.00;99.90;;;;;;4937030;29;20051;-79
2022/12/17 23:43:49;;;;;;;127.03;43.13;;;-3.10;99.90;;;;;;4939537;28;20043;-79
2022/12/17 23:46:17;;;;;;;117.20;41.47;;;-2.00;99.90;;;;;;4936366;29;20059;-79
2022/12/17 23:48:44;;;;;;;122.93;42.67;;;-3.10;99.90;;;;;;4935346;29;20502;-78
2022/12/17 23:51:10;;;;;;;119.50;40.30;;;-3.10;99.90;;;;;;4937104;29;20107;-78
2022/12/17 23:53:37;;;;;;;129.45;43.35;;;-2.50;99.90;;;;;;4916956;29;20087;-78
2022/12/17 23:56:11;;;;;;;127.45;45.38;;;-3.20;99.90;;;;;;4936703;29;20055;-78
2022/12/17 23:58:39;;;;;;;134.88;45.78;;;-3.10;99.90;;;;;;4935646;29;20059;-78
